sensor_id;sensor_type;location;lat;lon;timestamp;pressure;altitude;pressure_sealevel;temperature;humidity
37142;BME280;23041;49.816;20.092;2022-10-26T00:01:15;98037.70;;;11.16;68.79
37142;BME280;23041;49.816;20.092;2022-10-26T00:03:42;98031.97;;;11.18;68.82
37142;BME280;23041;49.816;20.092;2022-10-26T00:06:13;98039.26;;;11.17;68.88
37142;BME280;23041;49.816;20.092;2022-10-26T00:08:41;98043.05;;;11.23;68.93
37142;BME280;23041;49.816;20.092;2022-10-26T00:11:08;98037.64;;;11.19;68.99
37142;BME280;23041;49.816;20.092;2022-10-26T00:13:37;98033.26;;;11.22;69.10
37142;BME280;23041;49.816;20.092;2022-10-26T00:16:16;98030.05;;;11.35;69.15
37142;BME280;23041;49.816;20.092;2022-10-26T00:18:43;98045.22;;;11.59;69.21
37142;BME280;23041;49.816;20.092;2022-10-26T00:21:11;98052.85;;;11.79;69.22
37142;BME280;23041;49.816;20.092;2022-10-26T00:23:38;98047.48;;;11.72;69.20
37142;BME280;23041;49.816;20.092;2022-10-26T00:26:05;98053.00;;;11.80;69.22
37142;BME280;23041;49.816;20.092;2022-10-26T00:28:31;98052.22;;;11.80;69.22
37142;BME280;23041;49.816;20.092;2022-10-26T00:31:03;98054.81;;;11.87;69.22
37142;BME280;23041;49.816;20.092;2022-10-26T00:33:31;98051.20;;;11.82;69.23
37142;BME280;23041;49.816;20.092;2022-10-26T00:35:58;98037.72;;;11.88;69.23
37142;BME280;23041;49.816;20.092;2022-10-26T00:38:25;98047.27;;;11.99;69.22
37142;BME280;23041;49.816;20.092;2022-10-26T00:40:51;98048.05;;;12.08;69.19
37142;BME280;23041;49.816;20.092;2022-10-26T00:45:57;98051.65;;;12.05;69.13
37142;BME280;23041;49.816;20.092;2022-10-26T00:48:35;98055.79;;;11.97;69.09
37142;BME280;23041;49.816;20.092;2022-10-26T00:51:05;98048.56;;;11.95;69.08
37142;BME280;23041;49.816;20.092;2022-10-26T00:53:35;98043.30;;;11.92;69.10
37142;BME280;23041;49.816;20.092;2022-10-26T00:56:02;98047.27;;;11.83;69.11
37142;BME280;23041;49.816;20.092;2022-10-26T00:58:29;98031.38;;;11.63;69.14
37142;BME280;23041;49.816;20.092;2022-10-26T01:00:57;98041.93;;;11.56;69.18
37142;BME280;23041;49.816;20.092;2022-10-26T01:03:23;98046.05;;;11.56;69.21
37142;BME280;23041;49.816;20.092;2022-10-26T01:05:51;98050.69;;;11.51;69.20
37142;BME280;23041;49.816;20.092;2022-10-26T01:08:20;98053.77;;;11.45;69.21
37142;BME280;23041;49.816;20.092;2022-10-26T01:10:47;98058.98;;;11.39;69.22
37142;BME280;23041;49.816;20.092;2022-10-26T01:13:14;98060.92;;;11.23;69.19
37142;BME280;23041;49.816;20.092;2022-10-26T01:15:52;98058.98;;;11.12;69.19
37142;BME280;23041;49.816;20.092;2022-10-26T01:21:38;98057.41;;;10.83;69.26
37142;BME280;23041;49.816;20.092;2022-10-26T01:27:08;98068.69;;;10.77;69.35
37142;BME280;23041;49.816;20.092;2022-10-26T01:37:52;98053.48;;;10.72;69.44
37142;BME280;23041;49.816;20.092;2022-10-26T01:40:22;98043.88;;;10.72;69.50
37142;BME280;23041;49.816;20.092;2022-10-26T01:42:52;98038.70;;;10.66;69.54
37142;BME280;23041;49.816;20.092;2022-10-26T01:45:20;98048.33;;;10.54;69.60
37142;BME280;23041;49.816;20.092;2022-10-26T01:47:46;98043.55;;;10.47;69.64
37142;BME280;23041;49.816;20.092;2022-10-26T01:50:14;98047.13;;;10.44;69.67
37142;BME280;23041;49.816;20.092;2022-10-26T01:52:42;98060.80;;;10.47;69.70
37142;BME280;23041;49.816;20.092;2022-10-26T02:07:22;98058.88;;;10.21;69.75
37142;BME280;23041;49.816;20.092;2022-10-26T02:15:51;98049.23;;;9.86;69.92
37142;BME280;23041;49.816;20.092;2022-10-26T02:18:54;98055.96;;;9.81;69.97
37142;BME280;23041;49.816;20.092;2022-10-26T02:21:30;98049.82;;;9.86;70.00
37142;BME280;23041;49.816;20.092;2022-10-26T02:23:59;98049.52;;;9.80;70.05
37142;BME280;23041;49.816;20.092;2022-10-26T02:26:27;98053.84;;;9.77;70.10
37142;BME280;23041;49.816;20.092;2022-10-26T02:28:58;98051.73;;;9.77;70.14
37142;BME280;23041;49.816;20.092;2022-10-26T02:31:27;98051.66;;;9.80;70.21
37142;BME280;23041;49.816;20.092;2022-10-26T02:33:55;98049.62;;;9.73;70.31
37142;BME280;23041;49.816;20.092;2022-10-26T02:36:25;98048.73;;;9.79;70.43
37142;BME280;23041;49.816;20.092;2022-10-26T02:38:56;98060.27;;;9.94;70.52
37142;BME280;23041;49.816;20.092;2022-10-26T02:41:25;98059.14;;;10.03;70.55
37142;BME280;23041;49.816;20.092;2022-10-26T02:44:19;98057.25;;;10.12;70.58
37142;BME280;23041;49.816;20.092;2022-10-26T02:46:26;98060.84;;;10.20;70.63
37142;BME280;23041;49.816;20.092;2022-10-26T02:48:54;98057.81;;;10.27;70.64
37142;BME280;23041;49.816;20.092;2022-10-26T02:57:33;98046.02;;;10.03;70.68
37142;BME280;23041;49.816;20.092;2022-10-26T03:00:13;98055.91;;;9.97;70.68
37142;BME280;23041;49.816;20.092;2022-10-26T03:02:42;98063.66;;;10.02;70.69
37142;BME280;23041;49.816;20.092;2022-10-26T03:05:15;98065.03;;;10.02;70.70
37142;BME280;23041;49.816;20.092;2022-10-26T03:07:45;98064.69;;;10.00;70.70
37142;BME280;23041;49.816;20.092;2022-10-26T03:10:12;98073.20;;;9.94;70.66
37142;BME280;23041;49.816;20.092;2022-10-26T03:12:38;98070.38;;;9.86;70.62
37142;BME280;23041;49.816;20.092;2022-10-26T03:15:05;98078.77;;;9.75;70.62
37142;BME280;23041;49.816;20.092;2022-10-26T03:17:32;98076.50;;;9.70;70.62
37142;BME280;23041;49.816;20.092;2022-10-26T03:19:58;98070.70;;;9.49;70.67
37142;BME280;23041;49.816;20.092;2022-10-26T03:22:25;98077.05;;;9.42;70.71
37142;BME280;23041;49.816;20.092;2022-10-26T03:24:51;98084.09;;;9.43;70.74
37142;BME280;23041;49.816;20.092;2022-10-26T03:27:17;98079.20;;;9.43;70.77
37142;BME280;23041;49.816;20.092;2022-10-26T03:29:44;98080.71;;;9.32;70.76
37142;BME280;23041;49.816;20.092;2022-10-26T03:32:10;98080.20;;;9.26;70.79
37142;BME280;23041;49.816;20.092;2022-10-26T03:34:37;98079.10;;;9.20;70.83
37142;BME280;23041;49.816;20.092;2022-10-26T03:37:03;98081.90;;;9.16;70.90
37142;BME280;23041;49.816;20.092;2022-10-26T03:39:30;98084.07;;;9.13;70.92
37142;BME280;23041;49.816;20.092;2022-10-26T03:41:56;98075.27;;;8.98;70.98
37142;BME280;23041;49.816;20.092;2022-10-26T03:44:22;98080.76;;;8.95;71.05
37142;BME280;23041;49.816;20.092;2022-10-26T03:46:49;98079.84;;;8.90;71.10
37142;BME280;23041;49.816;20.092;2022-10-26T03:49:15;98090.93;;;8.94;71.11
37142;BME280;23041;49.816;20.092;2022-10-26T03:51:42;98089.02;;;8.91;71.12
37142;BME280;23041;49.816;20.092;2022-10-26T03:54:08;98090.91;;;8.79;71.11
37142;BME280;23041;49.816;20.092;2022-10-26T03:56:34;98085.74;;;8.70;71.09
37142;BME280;23041;49.816;20.092;2022-10-26T03:59:00;98088.87;;;8.68;71.12
37142;BME280;23041;49.816;20.092;2022-10-26T04:01:27;98082.50;;;8.59;71.13
37142;BME280;23041;49.816;20.092;2022-10-26T04:03:53;98083.19;;;8.52;71.13
37142;BME280;23041;49.816;20.092;2022-10-26T04:06:20;98082.14;;;8.35;71.18
37142;BME280;23041;49.816;20.092;2022-10-26T04:08:46;98082.77;;;8.31;71.26
37142;BME280;23041;49.816;20.092;2022-10-26T04:11:12;98080.03;;;8.31;71.33
37142;BME280;23041;49.816;20.092;2022-10-26T04:13:39;98088.73;;;8.41;71.43
37142;BME280;23041;49.816;20.092;2022-10-26T04:16:05;98088.28;;;8.46;71.52
37142;BME280;23041;49.816;20.092;2022-10-26T04:18:32;98090.03;;;8.48;71.57
37142;BME280;23041;49.816;20.092;2022-10-26T04:21:01;98087.28;;;8.52;71.62
37142;BME280;23041;49.816;20.092;2022-10-26T04:23:27;98086.13;;;8.49;71.65
37142;BME280;23041;49.816;20.092;2022-10-26T04:25:54;98083.98;;;8.49;71.70
37142;BME280;23041;49.816;20.092;2022-10-26T04:28:20;98085.41;;;8.42;71.73
37142;BME280;23041;49.816;20.092;2022-10-26T04:30:47;98082.49;;;8.15;71.74
37142;BME280;23041;49.816;20.092;2022-10-26T04:33:13;98083.91;;;8.08;71.75
37142;BME280;23041;49.816;20.092;2022-10-26T04:35:40;98079.67;;;8.00;71.78
37142;BME280;23041;49.816;20.092;2022-10-26T04:38:09;98084.88;;;8.09;71.82
37142;BME280;23041;49.816;20.092;2022-10-26T04:40:35;98087.03;;;8.10;71.83
37142;BME280;23041;49.816;20.092;2022-10-26T04:43:02;98085.48;;;8.05;71.84
37142;BME280;23041;49.816;20.092;2022-10-26T04:45:28;98088.22;;;8.05;71.89
37142;BME280;23041;49.816;20.092;2022-10-26T04:48:03;98080.59;;;8.05;71.95
37142;BME280;23041;49.816;20.092;2022-10-26T04:50:35;98079.66;;;8.03;72.02
37142;BME280;23041;49.816;20.092;2022-10-26T04:53:06;98082.39;;;8.03;72.10
37142;BME280;23041;49.816;20.092;2022-10-26T04:55:34;98073.73;;;7.86;72.18
37142;BME280;23041;49.816;20.092;2022-10-26T04:58:01;98078.23;;;7.85;72.25
37142;BME280;23041;49.816;20.092;2022-10-26T05:00:27;98074.52;;;7.83;72.32
37142;BME280;23041;49.816;20.092;2022-10-26T05:03:00;98078.97;;;7.89;72.35
37142;BME280;23041;49.816;20.092;2022-10-26T05:05:27;98078.42;;;7.82;72.35
37142;BME280;23041;49.816;20.092;2022-10-26T05:07:55;98086.08;;;7.79;72.34
37142;BME280;23041;49.816;20.092;2022-10-26T05:10:23;98081.98;;;7.75;72.37
37142;BME280;23041;49.816;20.092;2022-10-26T05:12:52;98085.48;;;7.79;72.41
37142;BME280;23041;49.816;20.092;2022-10-26T05:15:19;98080.92;;;7.62;72.47
37142;BME280;23041;49.816;20.092;2022-10-26T05:17:46;98087.55;;;7.58;72.51
37142;BME280;23041;49.816;20.092;2022-10-26T05:20:26;98086.77;;;7.61;72.59
37142;BME280;23041;49.816;20.092;2022-10-26T05:23:01;98099.62;;;7.67;72.64
37142;BME280;23041;49.816;20.092;2022-10-26T05:25:31;98107.03;;;7.67;72.65
37142;BME280;23041;49.816;20.092;2022-10-26T05:28:01;98110.70;;;7.72;72.69
37142;BME280;23041;49.816;20.092;2022-10-26T05:30:29;98111.88;;;7.71;72.71
37142;BME280;23041;49.816;20.092;2022-10-26T05:32:58;98117.14;;;7.73;72.75
37142;BME280;23041;49.816;20.092;2022-10-26T05:35:27;98118.09;;;7.75;72.78
37142;BME280;23041;49.816;20.092;2022-10-26T05:37:54;98128.01;;;7.80;72.83
37142;BME280;23041;49.816;20.092;2022-10-26T05:40:21;98109.53;;;7.69;72.87
37142;BME280;23041;49.816;20.092;2022-10-26T05:42:47;98112.07;;;7.72;72.92
37142;BME280;23041;49.816;20.092;2022-10-26T05:45:16;98117.30;;;7.78;72.96
37142;BME280;23041;49.816;20.092;2022-10-26T05:47:45;98131.25;;;7.94;73.00
37142;BME280;23041;49.816;20.092;2022-10-26T05:50:12;98132.92;;;8.07;72.98
37142;BME280;23041;49.816;20.092;2022-10-26T05:52:44;98130.34;;;8.11;72.99
37142;BME280;23041;49.816;20.092;2022-10-26T05:55:13;98129.47;;;8.25;73.00
37142;BME280;23041;49.816;20.092;2022-10-26T05:57:41;98132.49;;;8.41;73.03
37142;BME280;23041;49.816;20.092;2022-10-26T06:00:20;98133.52;;;8.58;73.06
37142;BME280;23041;49.816;20.092;2022-10-26T06:05:54;98131.25;;;8.72;73.08
37142;BME280;23041;49.816;20.092;2022-10-26T06:08:23;98132.23;;;8.92;73.10
37142;BME280;23041;49.816;20.092;2022-10-26T06:10:53;98137.61;;;9.18;73.13
37142;BME280;23041;49.816;20.092;2022-10-26T06:13:21;98148.02;;;9.49;73.16
37142;BME280;23041;49.816;20.092;2022-10-26T06:19:01;98154.89;;;10.21;73.10
37142;BME280;23041;49.816;20.092;2022-10-26T06:30:26;98153.38;;;11.21;72.79
37142;BME280;23041;49.816;20.092;2022-10-26T06:32:52;98143.24;;;11.18;72.65
37142;BME280;23041;49.816;20.092;2022-10-26T06:35:35;98148.58;;;11.37;72.54
37142;BME280;23041;49.816;20.092;2022-10-26T06:38:17;98147.03;;;11.64;72.43
37142;BME280;23041;49.816;20.092;2022-10-26T06:40:45;98150.27;;;12.06;72.30
37142;BME280;23041;49.816;20.092;2022-10-26T06:43:23;98158.78;;;13.09;72.19
37142;BME280;23041;49.816;20.092;2022-10-26T06:49:30;98166.30;;;15.88;72.01
37142;BME280;23041;49.816;20.092;2022-10-26T06:54:58;98164.87;;;17.85;70.63
37142;BME280;23041;49.816;20.092;2022-10-26T06:57:27;98165.63;;;19.46;69.45
37142;BME280;23041;49.816;20.092;2022-10-26T07:00:05;98162.88;;;21.54;68.55
37142;BME280;23041;49.816;20.092;2022-10-26T07:02:33;98170.11;;;23.08;67.09
37142;BME280;23041;49.816;20.092;2022-10-26T07:04:59;98171.97;;;24.65;65.30
37142;BME280;23041;49.816;20.092;2022-10-26T07:07:28;98171.91;;;26.08;63.36
37142;BME280;23041;49.816;20.092;2022-10-26T07:09:55;98177.17;;;27.19;61.09
37142;BME280;23041;49.816;20.092;2022-10-26T07:12:21;98178.11;;;28.14;58.72
37142;BME280;23041;49.816;20.092;2022-10-26T07:14:48;98179.85;;;28.94;56.36
37142;BME280;23041;49.816;20.092;2022-10-26T07:17:14;98181.23;;;29.73;54.21
37142;BME280;23041;49.816;20.092;2022-10-26T07:19:41;98180.65;;;30.49;52.00
37142;BME280;23041;49.816;20.092;2022-10-26T07:22:09;98181.16;;;31.32;49.99
37142;BME280;23041;49.816;20.092;2022-10-26T07:24:36;98182.41;;;32.55;48.20
37142;BME280;23041;49.816;20.092;2022-10-26T07:27:02;98185.54;;;33.50;46.16
37142;BME280;23041;49.816;20.092;2022-10-26T07:29:29;98186.11;;;34.36;44.22
37142;BME280;23041;49.816;20.092;2022-10-26T07:31:55;98192.65;;;34.87;42.38
37142;BME280;23041;49.816;20.092;2022-10-26T07:34:22;98193.41;;;35.55;40.60
37142;BME280;23041;49.816;20.092;2022-10-26T07:36:48;98191.40;;;36.10;38.99
37142;BME280;23041;49.816;20.092;2022-10-26T07:39:17;98187.30;;;36.75;37.55
37142;BME280;23041;49.816;20.092;2022-10-26T07:41:44;98187.03;;;37.37;36.17
37142;BME280;23041;49.816;20.092;2022-10-26T07:44:11;98193.52;;;37.86;34.83
37142;BME280;23041;49.816;20.092;2022-10-26T07:46:38;98187.50;;;38.31;33.60
37142;BME280;23041;49.816;20.092;2022-10-26T07:49:05;98192.75;;;38.95;32.54
37142;BME280;23041;49.816;20.092;2022-10-26T07:51:31;98190.16;;;39.52;31.43
37142;BME280;23041;49.816;20.092;2022-10-26T07:53:57;98188.12;;;39.97;30.38
37142;BME280;23041;49.816;20.092;2022-10-26T07:56:24;98190.34;;;40.44;29.30
37142;BME280;23041;49.816;20.092;2022-10-26T07:58:53;98185.80;;;40.86;28.44
37142;BME280;23041;49.816;20.092;2022-10-26T08:01:19;98186.55;;;41.34;27.54
37142;BME280;23041;49.816;20.092;2022-10-26T08:03:46;98185.16;;;41.72;26.72
37142;BME280;23041;49.816;20.092;2022-10-26T08:06:12;98179.57;;;41.63;26.02
37142;BME280;23041;49.816;20.092;2022-10-26T08:08:39;98181.77;;;41.63;25.29
37142;BME280;23041;49.816;20.092;2022-10-26T08:11:06;98183.96;;;41.15;24.63
37142;BME280;23041;49.816;20.092;2022-10-26T08:13:32;98182.85;;;41.57;24.34
37142;BME280;23041;49.816;20.092;2022-10-26T08:16:03;98177.55;;;42.16;23.85
37142;BME280;23041;49.816;20.092;2022-10-26T08:18:30;98180.90;;;42.77;23.37
37142;BME280;23041;49.816;20.092;2022-10-26T08:21:06;98182.20;;;43.29;22.76
37142;BME280;23041;49.816;20.092;2022-10-26T08:23:34;98177.20;;;43.02;21.99
37142;BME280;23041;49.816;20.092;2022-10-26T08:26:01;98180.63;;;43.41;21.61
37142;BME280;23041;49.816;20.092;2022-10-26T08:28:28;98181.20;;;43.81;21.00
37142;BME280;23041;49.816;20.092;2022-10-26T08:30:55;98179.97;;;43.71;20.25
37142;BME280;23041;49.816;20.092;2022-10-26T08:33:22;98176.38;;;42.60;20.10
37142;BME280;23041;49.816;20.092;2022-10-26T08:35:55;98172.64;;;42.85;20.07
37142;BME280;23041;49.816;20.092;2022-10-26T08:38:27;98178.37;;;43.82;19.93
37142;BME280;23041;49.816;20.092;2022-10-26T08:40:55;98177.80;;;43.86;19.51
37142;BME280;23041;49.816;20.092;2022-10-26T08:43:32;98176.58;;;44.35;19.22
37142;BME280;23041;49.816;20.092;2022-10-26T08:46:20;98174.23;;;45.11;18.92
37142;BME280;23041;49.816;20.092;2022-10-26T08:48:47;98174.05;;;45.75;18.50
37142;BME280;23041;49.816;20.092;2022-10-26T08:51:27;98174.77;;;46.47;18.05
37142;BME280;23041;49.816;20.092;2022-10-26T08:57:18;98171.53;;;46.77;17.10
37142;BME280;23041;49.816;20.092;2022-10-26T08:59:56;98166.30;;;46.73;16.56
37142;BME280;23041;49.816;20.092;2022-10-26T09:02:25;98165.45;;;46.51;16.38
37142;BME280;23041;49.816;20.092;2022-10-26T09:04:53;98171.03;;;47.03;16.23
37142;BME280;23041;49.816;20.092;2022-10-26T09:07:36;98171.27;;;47.30;15.86
37142;BME280;23041;49.816;20.092;2022-10-26T09:16:01;98167.78;;;47.56;15.29
37142;BME280;23041;49.816;20.092;2022-10-26T09:18:39;98173.77;;;48.52;15.02
37142;BME280;23041;49.816;20.092;2022-10-26T09:21:27;98172.30;;;48.52;14.43
37142;BME280;23041;49.816;20.092;2022-10-26T09:24:13;98168.80;;;47.86;14.27
37142;BME280;23041;49.816;20.092;2022-10-26T09:26:48;98169.59;;;48.11;14.17
37142;BME280;23041;49.816;20.092;2022-10-26T09:29:29;98167.30;;;47.85;13.73
37142;BME280;23041;49.816;20.092;2022-10-26T09:31:53;98167.23;;;47.61;13.83
37142;BME280;23041;49.816;20.092;2022-10-26T09:34:34;98165.13;;;48.55;13.78
37142;BME280;23041;49.816;20.092;2022-10-26T09:37:14;98167.31;;;49.33;13.56
37142;BME280;23041;49.816;20.092;2022-10-26T09:42:45;98168.21;;;50.31;12.99
37142;BME280;23041;49.816;20.092;2022-10-26T09:45:31;98169.88;;;50.08;12.61
37142;BME280;23041;49.816;20.092;2022-10-26T09:50:43;98167.27;;;50.54;12.40
37142;BME280;23041;49.816;20.092;2022-10-26T09:53:12;98166.84;;;50.69;12.27
37142;BME280;23041;49.816;20.092;2022-10-26T09:55:41;98167.22;;;50.51;12.16
37142;BME280;23041;49.816;20.092;2022-10-26T09:58:13;98169.15;;;50.74;12.09
37142;BME280;23041;49.816;20.092;2022-10-26T10:00:43;98171.13;;;50.63;11.82
37142;BME280;23041;49.816;20.092;2022-10-26T10:03:19;98166.14;;;51.06;11.77
37142;BME280;23041;49.816;20.092;2022-10-26T10:05:47;98165.27;;;51.38;11.70
37142;BME280;23041;49.816;20.092;2022-10-26T10:08:25;98159.08;;;51.19;11.54
37142;BME280;23041;49.816;20.092;2022-10-26T10:13:42;98168.64;;;51.64;11.50
37142;BME280;23041;49.816;20.092;2022-10-26T10:16:19;98168.64;;;51.64;11.50
37142;BME280;23041;49.816;20.092;2022-10-26T10:18:55;98168.12;;;51.76;10.83
37142;BME280;23041;49.816;20.092;2022-10-26T10:21:43;98163.27;;;51.49;10.83
37142;BME280;23041;49.816;20.092;2022-10-26T10:27:04;98164.34;;;49.05;10.75
37142;BME280;23041;49.816;20.092;2022-10-26T10:29:41;98145.00;;;47.93;11.60
37142;BME280;23041;49.816;20.092;2022-10-26T10:32:23;98149.67;;;46.94;11.24
37142;BME280;23041;49.816;20.092;2022-10-26T10:34:56;98149.67;;;46.94;11.24
37142;BME280;23041;49.816;20.092;2022-10-26T10:40:08;98146.25;;;42.10;12.54
37142;BME280;23041;49.816;20.092;2022-10-26T10:42:46;98145.70;;;42.66;12.99
37142;BME280;23041;49.816;20.092;2022-10-26T10:45:36;98145.34;;;42.73;13.22
37142;BME280;23041;49.816;20.092;2022-10-26T10:50:28;98148.39;;;44.05;13.30
37142;BME280;23041;49.816;20.092;2022-10-26T10:59:00;98131.78;;;42.49;13.49
37142;BME280;23041;49.816;20.092;2022-10-26T11:01:53;98127.01;;;42.81;13.53
37142;BME280;23041;49.816;20.092;2022-10-26T11:04:46;98135.56;;;43.49;13.52
37142;BME280;23041;49.816;20.092;2022-10-26T11:07:25;98138.34;;;43.47;13.53
37142;BME280;23041;49.816;20.092;2022-10-26T11:09:53;98133.27;;;42.10;13.82
37142;BME280;23041;49.816;20.092;2022-10-26T11:12:29;98128.73;;;42.72;14.09
37142;BME280;23041;49.816;20.092;2022-10-26T11:15:12;98139.36;;;43.53;13.77
37142;BME280;23041;49.816;20.092;2022-10-26T11:17:49;98131.45;;;41.90;13.83
37142;BME280;23041;49.816;20.092;2022-10-26T11:20:23;98132.11;;;41.89;14.09
37142;BME280;23041;49.816;20.092;2022-10-26T11:23:10;98135.27;;;43.73;13.96
37142;BME280;23041;49.816;20.092;2022-10-26T11:31:03;98137.16;;;43.97;13.82
37142;BME280;23041;49.816;20.092;2022-10-26T11:33:39;98141.73;;;44.17;13.50
37142;BME280;23041;49.816;20.092;2022-10-26T11:36:08;98132.92;;;42.57;13.38
37142;BME280;23041;49.816;20.092;2022-10-26T11:38:45;98126.77;;;42.50;13.56
37142;BME280;23041;49.816;20.092;2022-10-26T11:41:48;98125.55;;;38.78;14.16
37142;BME280;23041;49.816;20.092;2022-10-26T11:44:19;98135.96;;;39.04;14.84
37142;BME280;23041;49.816;20.092;2022-10-26T11:46:51;98131.16;;;37.65;15.46
37142;BME280;23041;49.816;20.092;2022-10-26T11:52:21;98133.11;;;38.73;16.16
37142;BME280;23041;49.816;20.092;2022-10-26T11:54:57;98135.94;;;40.36;15.81
37142;BME280;23041;49.816;20.092;2022-10-26T11:57:27;98139.12;;;39.95;15.58
37142;BME280;23041;49.816;20.092;2022-10-26T12:00:04;98137.98;;;40.23;15.55
37142;BME280;23041;49.816;20.092;2022-10-26T12:02:29;98137.14;;;41.03;15.45
37142;BME280;23041;49.816;20.092;2022-10-26T12:05:16;98141.33;;;41.12;15.19
37142;BME280;23041;49.816;20.092;2022-10-26T12:07:59;98145.77;;;40.67;15.13
37142;BME280;23041;49.816;20.092;2022-10-26T12:10:32;98145.55;;;41.85;14.93
37142;BME280;23041;49.816;20.092;2022-10-26T12:21:08;98144.83;;;40.18;14.42
37142;BME280;23041;49.816;20.092;2022-10-26T12:23:38;98138.72;;;39.02;14.72
37142;BME280;23041;49.816;20.092;2022-10-26T12:31:40;98132.20;;;40.45;14.60
37142;BME280;23041;49.816;20.092;2022-10-26T12:34:15;98138.63;;;40.80;14.72
37142;BME280;23041;49.816;20.092;2022-10-26T12:39:39;98141.20;;;42.36;14.28
37142;BME280;23041;49.816;20.092;2022-10-26T13:04:27;98136.97;;;41.24;14.33
37142;BME280;23041;49.816;20.092;2022-10-26T13:10:00;98138.12;;;41.19;14.50
37142;BME280;23041;49.816;20.092;2022-10-26T13:12:50;98137.95;;;40.22;14.58
37142;BME280;23041;49.816;20.092;2022-10-26T13:18:01;98137.06;;;40.43;14.93
37142;BME280;23041;49.816;20.092;2022-10-26T13:20:35;98139.13;;;40.41;15.09
37142;BME280;23041;49.816;20.092;2022-10-26T13:23:14;98137.51;;;40.38;15.14
37142;BME280;23041;49.816;20.092;2022-10-26T13:25:40;98143.27;;;40.04;15.19
37142;BME280;23041;49.816;20.092;2022-10-26T13:28:55;98145.12;;;39.44;15.36
37142;BME280;23041;49.816;20.092;2022-10-26T13:30:55;98150.13;;;39.44;15.55
37142;BME280;23041;49.816;20.092;2022-10-26T13:33:24;98151.52;;;39.33;15.58
37142;BME280;23041;49.816;20.092;2022-10-26T13:35:58;98148.61;;;39.11;15.55
37142;BME280;23041;49.816;20.092;2022-10-26T13:38:29;98146.16;;;38.96;15.65
37142;BME280;23041;49.816;20.092;2022-10-26T13:41:05;98145.15;;;38.71;15.88
37142;BME280;23041;49.816;20.092;2022-10-26T13:43:32;98144.92;;;38.37;16.01
37142;BME280;23041;49.816;20.092;2022-10-26T13:46:02;98141.63;;;37.71;16.21
37142;BME280;23041;49.816;20.092;2022-10-26T13:48:40;98144.48;;;37.33;16.60
37142;BME280;23041;49.816;20.092;2022-10-26T13:51:21;98148.53;;;36.83;16.93
37142;BME280;23041;49.816;20.092;2022-10-26T13:54:06;98151.44;;;36.46;17.17
37142;BME280;23041;49.816;20.092;2022-10-26T13:56:39;98155.23;;;36.13;17.47
37142;BME280;23041;49.816;20.092;2022-10-26T13:59:11;98155.69;;;36.10;17.65
37142;BME280;23041;49.816;20.092;2022-10-26T14:01:38;98153.88;;;35.96;17.73
37142;BME280;23041;49.816;20.092;2022-10-26T14:04:16;98148.88;;;35.78;17.80
37142;BME280;23041;49.816;20.092;2022-10-26T14:06:50;98151.59;;;35.42;18.01
37142;BME280;23041;49.816;20.092;2022-10-26T14:09:16;98156.48;;;35.32;18.22
37142;BME280;23041;49.816;20.092;2022-10-26T14:11:54;98160.12;;;35.16;18.35
37142;BME280;23041;49.816;20.092;2022-10-26T14:14:25;98156.87;;;35.02;18.66
37142;BME280;23041;49.816;20.092;2022-10-26T14:16:58;98160.67;;;34.80;18.93
37142;BME280;23041;49.816;20.092;2022-10-26T14:19:27;98158.85;;;34.59;19.06
37142;BME280;23041;49.816;20.092;2022-10-26T14:21:56;98155.86;;;34.40;19.19
37142;BME280;23041;49.816;20.092;2022-10-26T14:24:28;98157.04;;;34.21;19.30
37142;BME280;23041;49.816;20.092;2022-10-26T14:26:59;98160.47;;;33.56;19.44
37142;BME280;23041;49.816;20.092;2022-10-26T14:29:30;98164.30;;;31.48;19.98
37142;BME280;23041;49.816;20.092;2022-10-26T14:31:57;98166.47;;;30.01;21.00
37142;BME280;23041;49.816;20.092;2022-10-26T14:34:23;98170.49;;;29.52;21.87
37142;BME280;23041;49.816;20.092;2022-10-26T14:36:58;98166.92;;;29.12;22.41
37142;BME280;23041;49.816;20.092;2022-10-26T14:39:42;98166.70;;;28.13;23.05
37142;BME280;23041;49.816;20.092;2022-10-26T14:42:13;98170.16;;;27.38;23.78
37142;BME280;23041;49.816;20.092;2022-10-26T14:44:40;98178.38;;;26.15;24.56
37142;BME280;23041;49.816;20.092;2022-10-26T14:47:18;98180.28;;;25.15;25.53
37142;BME280;23041;49.816;20.092;2022-10-26T14:49:48;98182.95;;;24.46;26.30
37142;BME280;23041;49.816;20.092;2022-10-26T14:52:20;98185.77;;;23.64;27.21
37142;BME280;23041;49.816;20.092;2022-10-26T14:55:10;98181.51;;;23.26;28.00
37142;BME280;23041;49.816;20.092;2022-10-26T14:57:39;98192.41;;;23.18;28.64
37142;BME280;23041;49.816;20.092;2022-10-26T15:00:19;98192.39;;;22.70;29.27
37142;BME280;23041;49.816;20.092;2022-10-26T15:02:50;98193.67;;;22.22;29.82
37142;BME280;23041;49.816;20.092;2022-10-26T15:05:27;98198.59;;;21.71;30.45
37142;BME280;23041;49.816;20.092;2022-10-26T15:07:57;98201.86;;;20.98;31.22
37142;BME280;23041;49.816;20.092;2022-10-26T15:13:30;98205.94;;;20.18;32.85
37142;BME280;23041;49.816;20.092;2022-10-26T15:16:18;98203.97;;;20.00;33.61
37142;BME280;23041;49.816;20.092;2022-10-26T15:18:50;98208.11;;;19.70;34.30
37142;BME280;23041;49.816;20.092;2022-10-26T15:21:36;98214.03;;;19.20;34.96
37142;BME280;23041;49.816;20.092;2022-10-26T15:24:29;98211.06;;;18.76;35.74
37142;BME280;23041;49.816;20.092;2022-10-26T15:27:01;98220.33;;;18.26;36.32
37142;BME280;23041;49.816;20.092;2022-10-26T15:29:47;98223.80;;;17.44;37.12
37142;BME280;23041;49.816;20.092;2022-10-26T15:35:20;98223.16;;;17.22;38.57
37142;BME280;23041;49.816;20.092;2022-10-26T15:37:46;98228.68;;;17.03;39.11
37142;BME280;23041;49.816;20.092;2022-10-26T15:40:15;98244.15;;;16.47;39.75
37142;BME280;23041;49.816;20.092;2022-10-26T15:42:42;98244.15;;;16.47;39.75
37142;BME280;23041;49.816;20.092;2022-10-26T15:47:45;98250.45;;;15.90;41.61
37142;BME280;23041;49.816;20.092;2022-10-26T15:50:13;98243.03;;;15.66;41.90